sim
Sign-in with your pilot id or email,
or register
Callsign
Passwort

Schedule Details

Flight Number: OEO5280
Departure: Basel Mulhouse-Freiburg EuroAirport (LFSB) at 12:45
Arrival: Fuerteventura Airport (GCFV) at 17:10

Weather Information
Getting current METAR information for LFSB 222300Z AUTO 00000KT CAVOK 18/16 Q1022 NOSIG
Getting current METAR information for GCFV 222300Z AUTO 36018KT 9999 NCD 21/17 Q1018

Schedule Frequency

Route Map